Time;durP1;ratioP1;P1;durP2;ratioP2;P2;SDS_P1;SDS_P2;PMS_P1;PMS_P2;Temp;Humidity;BMP_temperature;BMP_pressure;BME280_temperature;BME280_humidity;BME280_pressure;Samples;Min_cycle;Max_cycle;Signal;HPM_P1;HPM_P2
2022/04/26 03:38:30;;;;;;;0.10;0.10;;;;;;;;;;5052160;28;20209;-72
2022/04/26 03:40:57;;;;;;;0.10;0.10;;;;;;;;;;5033454;28;20288;-73
2022/04/26 03:43:23;;;;;;;0.10;0.10;;;;;;;;;;5043482;28;20242;-72
2022/04/26 03:45:49;;;;;;;0.10;0.10;;;;;;;;;;5045567;28;20628;-73
2022/04/26 03:48:16;;;;;;;0.10;0.10;;;;;;;;;;5064329;28;20218;-73
2022/04/26 03:50:42;;;;;;;0.10;0.10;;;;;;;;;;5038574;28;20245;-73
2022/04/26 03:53:09;;;;;;;0.10;0.10;;;;;;;;;;5054619;28;20206;-73
2022/04/26 03:55:36;;;;;;;0.10;0.10;;;;;;;;;;5033460;28;20288;-72
2022/04/26 03:58:02;;;;;;;0.10;0.10;;;;;;;;;;5043246;28;20248;-73
2022/04/26 04:00:28;;;;;;;0.10;0.10;;;;;;;;;;5038282;28;20206;-72
2022/04/26 04:02:54;;;;;;;0.10;0.10;;;;;;;;;;5070645;28;20198;-72
2022/04/26 04:05:22;;;;;;;0.10;0.10;;;;;;;;;;5034949;28;20228;-76
2022/04/26 04:07:48;;;;;;;0.10;0.10;;;;;;;;;;5057175;28;20193;-77
2022/04/26 04:10:15;;;;;;;0.10;0.10;;;;;;;;;;5034002;28;20212;-76
2022/04/26 04:12:42;;;;;;;0.10;0.10;;;;;;;;;;5042941;28;20490;-76
2022/04/26 04:15:08;;;;;;;0.10;0.10;;;;;;;;;;5034633;28;20227;-78
2022/04/26 04:17:35;;;;;;;0.10;0.10;;;;;;;;;;5074498;28;20206;-77
2022/04/26 04:20:01;;;;;;;0.10;0.10;;;;;;;;;;5043535;28;20216;-78
2022/04/26 04:22:28;;;;;;;0.10;0.10;;;;;;;;;;5048764;28;20279;-77
2022/04/26 04:24:54;;;;;;;0.10;0.10;;;;;;;;;;5042428;28;20252;-78
2022/04/26 04:27:21;;;;;;;0.10;0.10;;;;;;;;;;5032206;28;20241;-77
2022/04/26 04:29:48;;;;;;;0.10;0.10;;;;;;;;;;5043417;28;20211;-75
2022/04/26 04:32:14;;;;;;;0.10;0.10;;;;;;;;;;5065286;28;20564;-76
2022/04/26 04:34:40;;;;;;;0.10;0.10;;;;;;;;;;5043754;28;20249;-77
2022/04/26 04:37:08;;;;;;;0.10;0.10;;;;;;;;;;5048624;28;20580;-78
2022/04/26 04:39:34;;;;;;;0.10;0.10;;;;;;;;;;5043232;28;20249;-78
2022/04/26 04:42:00;;;;;;;0.10;0.10;;;;;;;;;;5031595;28;20240;-78
2022/04/26 04:44:28;;;;;;;0.10;0.10;;;;;;;;;;5043049;28;20233;-78
2022/04/26 04:46:58;;;;;;;0.20;0.20;;;;;;;;;;5061447;28;20580;-78
2022/04/26 04:49:24;;;;;;;0.10;0.10;;;;;;;;;;5045446;28;20248;-77
2022/04/26 04:51:50;;;;;;;0.10;0.10;;;;;;;;;;5046464;28;20242;-77
2022/04/26 04:54:16;;;;;;;0.10;0.10;;;;;;;;;;5045321;28;20235;-77
2022/04/26 04:56:45;;;;;;;0.10;0.10;;;;;;;;;;5032255;28;20587;-76
2022/04/26 04:59:11;;;;;;;0.10;0.10;;;;;;;;;;5042706;28;20206;-77
2022/04/26 05:01:39;;;;;;;0.37;0.37;;;;;;;;;;5057165;28;20240;-78
2022/04/26 05:04:05;;;;;;;0.10;0.10;;;;;;;;;;5050274;28;20537;-78
2022/04/26 05:06:31;;;;;;;0.10;0.10;;;;;;;;;;5043823;28;20257;-78
2022/04/26 05:08:57;;;;;;;0.10;0.10;;;;;;;;;;5047449;28;20205;-77
2022/04/26 05:11:24;;;;;;;0.10;0.10;;;;;;;;;;5032161;28;20277;-78
2022/04/26 05:13:50;;;;;;;0.10;0.10;;;;;;;;;;5042637;28;20210;-76
2022/04/26 05:16:16;;;;;;;0.10;0.10;;;;;;;;;;5051688;28;20568;-79
2022/04/26 05:18:44;;;;;;;0.10;0.10;;;;;;;;;;5055909;28;20382;-78
2022/04/26 05:21:13;;;;;;;0.10;0.10;;;;;;;;;;5040645;28;20245;-78
2022/04/26 05:26:23;;;;;;;0.10;0.10;;;;;;;;;;5032088;28;20329;-77
2022/04/26 05:28:50;;;;;;;0.10;0.10;;;;;;;;;;5042421;28;20304;-78
2022/04/26 05:31:16;;;;;;;0.10;0.10;;;;;;;;;;5051312;28;20606;-77
2022/04/26 05:33:42;;;;;;;0.10;0.10;;;;;;;;;;5055670;28;20206;-78
2022/04/26 05:36:10;;;;;;;0.10;0.10;;;;;;;;;;5040644;28;20371;-77
2022/04/26 05:38:36;;;;;;;0.20;0.20;;;;;;;;;;5049659;28;20280;-76
2022/04/26 05:41:02;;;;;;;0.10;0.10;;;;;;;;;;5031999;28;20238;-77
2022/04/26 05:43:29;;;;;;;0.10;0.10;;;;;;;;;;5041961;28;20209;-75
2022/04/26 05:45:55;;;;;;;0.10;0.10;;;;;;;;;;5045835;28;20286;-77
2022/04/26 05:48:21;;;;;;;0.10;0.10;;;;;;;;;;5060817;28;20258;-78
2022/04/26 05:50:47;;;;;;;0.10;0.10;;;;;;;;;;5037494;28;20282;-77
2022/04/26 05:53:15;;;;;;;0.10;0.10;;;;;;;;;;5051908;28;20555;-77
2022/04/26 05:55:41;;;;;;;0.10;0.10;;;;;;;;;;5032163;28;20587;-77
2022/04/26 05:58:07;;;;;;;0.10;0.10;;;;;;;;;;5041479;28;20276;-77
2022/04/26 06:00:34;;;;;;;0.10;0.10;;;;;;;;;;5042645;28;20387;-77
2022/04/26 06:03:00;;;;;;;0.10;0.10;;;;;;;;;;5071361;28;20195;-76
2022/04/26 06:05:27;;;;;;;0.10;0.10;;;;;;;;;;5039001;28;20334;-76
2022/04/26 06:07:53;;;;;;;0.10;0.10;;;;;;;;;;5058618;28;20233;-76
2022/04/26 06:10:23;;;;;;;0.10;0.10;;;;;;;;;;5036054;28;20215;-78
2022/04/26 06:12:49;;;;;;;0.10;0.10;;;;;;;;;;5044833;28;20195;-77
2022/04/26 06:15:17;;;;;;;0.10;0.10;;;;;;;;;;5038890;28;20274;-78
2022/04/26 06:17:43;;;;;;;0.10;0.10;;;;;;;;;;5074387;28;20193;-78
2022/04/26 06:20:10;;;;;;;0.10;0.10;;;;;;;;;;5036629;28;20210;-76
2022/04/26 06:22:36;;;;;;;0.10;0.10;;;;;;;;;;5060531;28;20199;-78
2022/04/26 06:25:02;;;;;;;0.10;0.10;;;;;;;;;;5045586;28;20265;-76
2022/04/26 06:27:30;;;;;;;0.10;0.10;;;;;;;;;;5034588;28;20399;-78
2022/04/26 06:29:56;;;;;;;0.10;0.10;;;;;;;;;;5045872;28;20220;-76
2022/04/26 06:32:23;;;;;;;0.10;0.10;;;;;;;;;;5067574;28;20650;-78
2022/04/26 06:34:49;;;;;;;0.10;0.10;;;;;;;;;;5045654;28;20211;-77
2022/04/26 06:37:15;;;;;;;0.10;0.10;;;;;;;;;;5050882;28;20295;-78
2022/04/26 06:39:41;;;;;;;0.10;0.10;;;;;;;;;;5045599;28;20239;-77
2022/04/26 06:42:08;;;;;;;0.10;0.10;;;;;;;;;;5034365;28;20261;-78
2022/04/26 06:44:35;;;;;;;0.10;0.10;;;;;;;;;;5045478;28;20235;-78
2022/04/26 06:47:02;;;;;;;0.10;0.10;;;;;;;;;;5066433;28;20241;-77
2022/04/26 06:49:28;;;;;;;0.10;0.10;;;;;;;;;;5046201;28;20205;-79
2022/04/26 06:51:54;;;;;;;0.10;0.10;;;;;;;;;;5048996;28;20288;-77
2022/04/26 06:54:21;;;;;;;0.10;0.10;;;;;;;;;;5046668;28;20202;-78
2022/04/26 06:56:47;;;;;;;0.10;0.10;;;;;;;;;;5034452;28;20247;-77
2022/04/26 06:59:13;;;;;;;0.10;0.10;;;;;;;;;;5045482;28;20209;-76
2022/04/26 07:01:41;;;;;;;0.10;0.10;;;;;;;;;;5060319;28;20413;-77
2022/04/26 07:04:08;;;;;;;0.10;0.10;;;;;;;;;;5051450;28;20254;-76
2022/04/26 07:06:34;;;;;;;0.10;0.10;;;;;;;;;;5046367;28;20478;-77
2022/04/26 07:09:03;;;;;;;0.10;0.10;;;;;;;;;;5049258;28;20326;-78
2022/04/26 07:11:29;;;;;;;0.10;0.10;;;;;;;;;;5033381;28;20252;-78
2022/04/26 07:13:57;;;;;;;0.10;0.10;;;;;;;;;;5044866;28;20208;-79
2022/04/26 07:16:23;;;;;;;0.10;0.10;;;;;;;;;;5055457;28;20249;-76
2022/04/26 07:18:51;;;;;;;0.10;0.10;;;;;;;;;;5056071;28;20205;-76
2022/04/26 07:21:31;;;;;;;0.10;0.10;;;;;;;;;;5043841;28;20255;-77
2022/04/26 07:23:57;;;;;;;0.10;0.10;;;;;;;;;;5049002;28;20277;-76
2022/04/26 07:26:24;;;;;;;0.10;0.10;;;;;;;;;;5034059;28;20268;-76
2022/04/26 07:28:50;;;;;;;0.10;0.10;;;;;;;;;;5044046;28;20214;-77
2022/04/26 07:31:16;;;;;;;0.10;0.10;;;;;;;;;;5053297;28;20249;-77
2022/04/26 07:36:28;;;;;;;0.10;0.10;;;;;;;;;;5043189;28;20384;-77
2022/04/26 07:41:37;;;;;;;0.10;0.10;;;;;;;;;;5798128;22;20236;-78
2022/04/26 07:44:06;;;;;;;0.10;0.10;;;;;;;;;;5043982;28;20246;-77
2022/04/26 07:46:33;;;;;;;0.10;0.10;;;;;;;;;;5033691;28;20248;-77
2022/04/26 07:49:03;;;;;;;0.10;0.10;;;;;;;;;;5044325;28;20224;-77
2022/04/26 07:51:31;;;;;;;0.10;0.10;;;;;;;;;;5044218;28;20243;-78
2022/04/26 07:53:59;;;;;;;0.10;0.10;;;;;;;;;;5049372;28;20201;-76
2022/04/26 07:56:31;;;;;;;0.10;0.10;;;;;;;;;;5030356;28;20450;-78
2022/04/26 07:59:05;;;;;;;0.10;0.10;;;;;;;;;;5044378;28;20336;-77
2022/04/26 08:04:12;;;;;;;0.10;0.10;;;;;;;;;;5001913;28;20212;-76
2022/04/26 08:06:44;;;;;;;0.10;0.10;;;;;;;;;;5005108;28;20256;-78
2022/04/26 08:11:51;;;;;;;0.10;0.10;;;;;;;;;;5010010;28;20241;-78
2022/04/26 08:14:19;;;;;;;0.10;0.10;;;;;;;;;;5022475;28;20208;-77
2022/04/26 08:16:47;;;;;;;0.10;0.10;;;;;;;;;;4971949;28;20294;-77
2022/04/26 08:19:14;;;;;;;0.10;0.10;;;;;;;;;;4963715;29;20214;-78
2022/04/26 08:21:45;;;;;;;0.10;0.10;;;;;;;;;;4952716;28;20306;-77
2022/04/26 08:29:40;;;;;;;0.10;0.10;;;;;;;;;;4983649;28;20211;-78
2022/04/26 08:32:26;;;;;;;0.10;0.10;;;;;;;;;;4957269;28;20434;-77
2022/04/26 08:35:13;;;;;;;;;;;;;;;;;;;;;
2022/04/26 08:38:05;;;;;;;0.10;0.10;;;;;;;;;;4871162;29;22550;-77
2022/04/26 08:40:40;;;;;;;0.10;0.10;;;;;;;;;;4914721;29;20252;-77
2022/04/26 08:43:18;;;;;;;0.10;0.10;;;;;;;;;;4959378;29;20218;-77
2022/04/26 08:45:49;;;;;;;0.10;0.10;;;;;;;;;;4957911;28;20297;-76
2022/04/26 08:51:09;;;;;;;0.10;0.10;;;;;;;;;;4953731;28;20284;-80
2022/04/26 08:53:44;;;;;;;0.10;0.10;;;;;;;;;;4963312;29;20241;-77
2022/04/26 08:56:33;;;;;;;0.10;0.10;;;;;;;;;;4961095;28;20263;-79
2022/04/26 08:59:04;;;;;;;0.10;0.10;;;;;;;;;;4962823;28;20261;-78
2022/04/26 09:01:44;;;;;;;0.10;0.10;;;;;;;;;;4973185;28;20257;-77
2022/04/26 09:04:17;;;;;;;0.10;0.10;;;;;;;;;;5027301;28;20248;-76
2022/04/26 09:06:45;;;;;;;0.00;0.00;;;;;;;;;;4985643;28;20249;-76
2022/04/26 09:09:17;;;;;;;0.10;0.10;;;;;;;;;;4982302;28;20223;-76
2022/04/26 09:11:44;;;;;;;0.10;0.10;;;;;;;;;;4971740;28;20267;-78
2022/04/26 09:14:29;;;;;;;0.10;0.10;;;;;;;;;;4982337;28;20380;-77
2022/04/26 09:17:05;;;;;;;0.10;0.10;;;;;;;;;;4971815;28;20451;-78
2022/04/26 09:19:43;;;;;;;0.10;0.10;;;;;;;;;;4982390;28;20210;-76
2022/04/26 09:22:21;;;;;;;0.10;0.10;;;;;;;;;;4972374;28;20243;-77
2022/04/26 09:25:14;;;;;;;0.10;0.10;;;;;;;;;;4982649;28;20200;-77
2022/04/26 09:27:41;;;;;;;0.10;0.10;;;;;;;;;;4972088;28;20243;-76
2022/04/26 09:30:09;;;;;;;0.00;0.00;;;;;;;;;;4976870;28;20217;-76
2022/04/26 09:33:25;;;;;;;;;;;;;;;;;;;;;
2022/04/26 09:36:09;;;;;;;0.00;0.00;;;;;;;;;;4986706;28;20257;-75
2022/04/26 09:41:33;;;;;;;0.10;0.10;;;;;;;;;;5117907;27;20983;-78
2022/04/26 09:44:03;;;;;;;0.10;0.10;;;;;;;;;;5104462;28;20205;-76
2022/04/26 09:46:47;;;;;;;2.47;2.37;;;;;;;;;;5088989;28;20261;-76
2022/04/26 09:49:21;;;;;;;0.10;0.10;;;;;;;;;;5082636;28;20224;-77
2022/04/26 09:51:49;;;;;;;0.10;0.10;;;;;;;;;;5077682;28;20249;-78
2022/04/26 09:54:17;;;;;;;0.00;0.00;;;;;;;;;;5082084;28;20269;-78
2022/04/26 09:56:46;;;;;;;0.10;0.10;;;;;;;;;;5081226;28;20293;-78
2022/04/26 09:59:13;;;;;;;0.10;0.10;;;;;;;;;;5082858;28;20484;-78
2022/04/26 10:01:41;;;;;;;0.10;0.10;;;;;;;;;;5082304;28;20263;-79
2022/04/26 10:04:09;;;;;;;0.10;0.10;;;;;;;;;;5082735;28;20205;-78
2022/04/26 10:06:36;;;;;;;0.10;0.10;;;;;;;;;;5081388;28;20275;-78
2022/04/26 10:09:03;;;;;;;0.10;0.10;;;;;;;;;;5083636;28;20208;-73
2022/04/26 10:11:33;;;;;;;0.10;0.10;;;;;;;;;;5078484;28;20352;-74
2022/04/26 10:14:02;;;;;;;0.10;0.10;;;;;;;;;;5085238;28;20507;-73
2022/04/26 10:16:30;;;;;;;0.22;0.22;;;;;;;;;;5080205;28;20438;-74
2022/04/26 10:19:02;;;;;;;0.08;0.08;;;;;;;;;;5084406;28;20212;-73
2022/04/26 10:21:46;;;;;;;0.10;0.10;;;;;;;;;;5080447;28;20257;-71
2022/04/26 10:24:13;;;;;;;0.08;0.08;;;;;;;;;;5082264;28;20242;-75
2022/04/26 10:26:40;;;;;;;0.00;0.00;;;;;;;;;;5082123;28;20239;-76
2022/04/26 10:29:20;;;;;;;0.10;0.10;;;;;;;;;;5082906;28;20218;-74
2022/04/26 10:31:47;;;;;;;0.10;0.10;;;;;;;;;;5082735;28;20321;-76
2022/04/26 10:34:34;;;;;;;0.10;0.10;;;;;;;;;;5081990;28;20211;-74
2022/04/26 10:37:02;;;;;;;0.00;0.00;;;;;;;;;;5084469;28;20248;-72
2022/04/26 10:39:36;;;;;;;0.00;0.00;;;;;;;;;;5079465;28;20259;-79
2022/04/26 10:42:25;;;;;;;0.10;0.10;;;;;;;;;;5101820;28;20238;-74
2022/04/26 10:45:13;;;;;;;0.00;0.00;;;;;;;;;;5119757;28;20255;-80
2022/04/26 10:47:42;;;;;;;0.00;0.00;;;;;;;;;;5107414;28;20288;-70
2022/04/26 10:50:12;;;;;;;0.00;0.00;;;;;;;;;;5119906;28;20520;-69
2022/04/26 10:52:44;;;;;;;0.10;0.10;;;;;;;;;;5094994;28;20255;-70
2022/04/26 10:55:14;;;;;;;0.10;0.10;;;;;;;;;;5096265;28;20216;-70
2022/04/26 10:57:42;;;;;;;0.00;0.00;;;;;;;;;;5121436;28;20212;-70
2022/04/26 11:00:09;;;;;;;0.05;0.05;;;;;;;;;;5095798;28;20234;-71
2022/04/26 11:02:37;;;;;;;0.00;0.00;;;;;;;;;;5121649;28;20431;-71
2022/04/26 11:05:08;;;;;;;0.00;0.00;;;;;;;;;;5106595;28;20247;-69
2022/04/26 11:07:36;;;;;;;0.00;0.00;;;;;;;;;;5111712;28;20242;-69
2022/04/26 11:10:04;;;;;;;0.10;0.10;;;;;;;;;;5106227;28;20218;-69
2022/04/26 11:12:33;;;;;;;0.00;0.00;;;;;;;;;;5111939;28;20252;-69
2022/04/26 11:15:00;;;;;;;0.00;0.00;;;;;;;;;;5106236;28;20205;-68
2022/04/26 11:17:27;;;;;;;0.00;0.00;;;;;;;;;;5111623;28;20254;-69
2022/04/26 11:19:54;;;;;;;0.05;0.05;;;;;;;;;;5105949;28;20231;-70
2022/04/26 11:22:23;;;;;;;0.00;0.00;;;;;;;;;;5111468;28;20239;-69
2022/04/26 11:30:23;;;;;;;0.10;0.10;;;;;;;;;;5096781;28;20187;-69
2022/04/26 11:32:49;;;;;;;0.08;0.08;;;;;;;;;;5119503;28;20241;-69
2022/04/26 11:35:17;;;;;;;0.10;0.10;;;;;;;;;;5104710;28;20214;-69
2022/04/26 11:37:46;;;;;;;0.10;0.10;;;;;;;;;;5121299;28;20249;-67
2022/04/26 11:40:21;;;;;;;0.10;0.10;;;;;;;;;;5094830;28;20300;-70
2022/04/26 11:42:47;;;;;;;0.10;0.10;;;;;;;;;;5119547;28;20205;-70
2022/04/26 11:45:13;;;;;;;0.03;0.03;;;;;;;;;;5095962;28;20409;-69
2022/04/26 11:47:41;;;;;;;0.10;0.10;;;;;;;;;;5120106;28;20201;-68
2022/04/26 11:50:09;;;;;;;0.10;0.10;;;;;;;;;;5095697;28;20228;-69
2022/04/26 11:52:35;;;;;;;0.10;0.10;;;;;;;;;;5120682;28;20266;-69
2022/04/26 11:55:04;;;;;;;0.10;0.10;;;;;;;;;;5105741;28;20272;-72
2022/04/26 11:57:32;;;;;;;0.10;0.10;;;;;;;;;;5110764;28;20241;-72
2022/04/26 11:59:59;;;;;;;0.03;0.03;;;;;;;;;;5105010;28;20288;-71
2022/04/26 12:02:26;;;;;;;0.10;0.10;;;;;;;;;;5109564;28;20249;-72
2022/04/26 12:04:53;;;;;;;0.10;0.10;;;;;;;;;;5104720;28;20239;-73
2022/04/26 12:07:21;;;;;;;0.10;0.10;;;;;;;;;;5110793;28;20243;-72
2022/04/26 12:09:48;;;;;;;0.10;0.10;;;;;;;;;;5104905;28;20203;-72
2022/04/26 12:12:16;;;;;;;0.00;0.00;;;;;;;;;;5110618;28;20548;-74
2022/04/26 12:14:43;;;;;;;0.08;0.08;;;;;;;;;;5104813;28;20203;-72
2022/04/26 12:17:22;;;;;;;0.03;0.03;;;;;;;;;;5110361;28;20308;-71
2022/04/26 12:19:51;;;;;;;0.10;0.10;;;;;;;;;;5104432;28;20397;-71
2022/04/26 12:22:19;;;;;;;0.05;0.05;;;;;;;;;;5110227;28;20507;-73
2022/04/26 12:24:48;;;;;;;0.00;0.00;;;;;;;;;;5104660;28;20229;-69
2022/04/26 12:27:25;;;;;;;0.10;0.10;;;;;;;;;;5109853;28;20253;-69
2022/04/26 12:30:13;;;;;;;0.10;0.10;;;;;;;;;;5105182;28;20225;-79
2022/04/26 12:32:46;;;;;;;0.00;0.00;;;;;;;;;;5052356;28;20240;-78
2022/04/26 12:35:20;;;;;;;0.10;0.10;;;;;;;;;;5051845;28;20211;-76
2022/04/26 12:38:05;;;;;;;0.00;0.00;;;;;;;;;;5042586;28;20214;-76
2022/04/26 12:40:33;;;;;;;0.10;0.10;;;;;;;;;;5013209;28;20352;-77
2022/04/26 12:43:26;;;;;;;0.00;0.00;;;;;;;;;;5041235;28;20232;-78
2022/04/26 12:46:02;;;;;;;0.03;0.03;;;;;;;;;;5014586;28;20310;-77
2022/04/26 12:54:32;;;;;;;0.10;0.10;;;;;;;;;;4981634;28;20199;-76
2022/04/26 12:59:59;;;;;;;0.10;0.10;;;;;;;;;;5001566;28;20204;-77
2022/04/26 13:21:01;;;;;;;0.10;0.10;;;;;;;;;;4891746;29;20284;-77
2022/04/26 13:23:38;;;;;;;0.10;0.10;;;;;;;;;;4997358;28;20229;-77
2022/04/26 13:26:06;;;;;;;0.10;0.10;;;;;;;;;;4984018;28;20429;-77
2022/04/26 13:28:32;;;;;;;0.10;0.10;;;;;;;;;;5001242;28;20205;-78
2022/04/26 13:31:02;;;;;;;0.10;0.10;;;;;;;;;;4969550;28;20315;-79
2022/04/26 13:33:30;;;;;;;0.10;0.10;;;;;;;;;;4943034;29;20212;-77
2022/04/26 13:35:56;;;;;;;0.03;0.03;;;;;;;;;;4933372;29;20314;-78
2022/04/26 13:38:23;;;;;;;0.10;0.10;;;;;;;;;;4943345;29;20219;-78
2022/04/26 13:40:52;;;;;;;0.10;0.10;;;;;;;;;;4933504;29;20259;-78
2022/04/26 13:43:20;;;;;;;0.10;0.10;;;;;;;;;;4944083;29;20483;-77
2022/04/26 13:45:47;;;;;;;0.10;0.10;;;;;;;;;;4943199;29;20254;-77
2022/04/26 13:48:13;;;;;;;0.10;0.10;;;;;;;;;;4962705;29;20257;-78
2022/04/26 13:50:40;;;;;;;0.00;0.00;;;;;;;;;;4951366;29;20243;-79
2022/04/26 13:53:06;;;;;;;0.00;0.00;;;;;;;;;;4964236;29;20210;-81
2022/04/26 13:55:33;;;;;;;0.10;0.10;;;;;;;;;;4947133;29;20505;-81
2022/04/26 13:58:03;;;;;;;0.10;0.10;;;;;;;;;;4990117;28;20543;-80
2022/04/26 14:00:34;;;;;;;0.10;0.10;;;;;;;;;;4990951;28;20247;-79
2022/04/26 14:03:00;;;;;;;0.03;0.03;;;;;;;;;;5031276;28;20204;-79
2022/04/26 14:05:31;;;;;;;0.07;0.07;;;;;;;;;;5051697;28;20270;-80
2022/04/26 14:07:58;;;;;;;0.10;0.10;;;;;;;;;;5060558;28;20210;-79
2022/04/26 14:10:27;;;;;;;0.10;0.10;;;;;;;;;;5050755;28;20200;-77
2022/04/26 14:12:55;;;;;;;0.10;0.10;;;;;;;;;;5061426;28;20237;-79
2022/04/26 14:23:35;;;;;;;0.00;0.00;;;;;;;;;;5110311;28;20256;-81
2022/04/26 14:26:03;;;;;;;0.10;0.10;;;;;;;;;;5101503;28;20252;-79
2022/04/26 14:28:29;;;;;;;0.03;0.03;;;;;;;;;;5114790;28;20264;-77
2022/04/26 14:31:00;;;;;;;0.10;0.10;;;;;;;;;;5102755;28;20239;-77
2022/04/26 14:33:26;;;;;;;0.03;0.03;;;;;;;;;;5114916;28;20201;-77
2022/04/26 14:35:53;;;;;;;0.10;0.10;;;;;;;;;;5103393;28;20244;-77
2022/04/26 14:38:20;;;;;;;0.10;0.10;;;;;;;;;;5118696;28;20502;-78
2022/04/26 14:40:47;;;;;;;0.10;0.10;;;;;;;;;;5102560;28;20315;-77
2022/04/26 14:43:14;;;;;;;0.10;0.10;;;;;;;;;;5116410;28;20484;-72
2022/04/26 14:45:45;;;;;;;0.10;0.10;;;;;;;;;;5100806;28;20247;-72
2022/04/26 14:48:14;;;;;;;0.10;0.10;;;;;;;;;;5116957;28;20481;-71
2022/04/26 14:50:41;;;;;;;0.10;0.10;;;;;;;;;;5100537;28;20236;-72
2022/04/26 14:53:08;;;;;;;0.10;0.10;;;;;;;;;;5116887;28;20220;-71
2022/04/26 14:55:36;;;;;;;0.10;0.10;;;;;;;;;;5099372;28;20239;-71
2022/04/26 14:58:03;;;;;;;0.10;0.10;;;;;;;;;;5117361;28;20278;-72
2022/04/26 15:00:30;;;;;;;0.10;0.10;;;;;;;;;;5098946;28;20324;-71
2022/04/26 15:02:57;;;;;;;0.00;0.00;;;;;;;;;;5118567;28;20211;-71
2022/04/26 15:05:26;;;;;;;0.10;0.10;;;;;;;;;;5097580;28;20491;-72
2022/04/26 15:10:36;;;;;;;0.10;0.10;;;;;;;;;;5099918;28;20291;-72
2022/04/26 15:18:32;;;;;;;0.10;0.10;;;;;;;;;;5113537;28;20207;-71
2022/04/26 15:21:01;;;;;;;0.10;0.10;;;;;;;;;;5101871;28;20665;-70
2022/04/26 15:23:27;;;;;;;0.10;0.10;;;;;;;;;;5113810;28;20250;-71
2022/04/26 15:25:55;;;;;;;0.10;0.10;;;;;;;;;;5101591;28;20262;-71
2022/04/26 15:28:22;;;;;;;0.10;0.10;;;;;;;;;;5114494;28;20237;-71
2022/04/26 15:30:49;;;;;;;0.10;0.10;;;;;;;;;;5100891;28;20270;-71
2022/04/26 15:33:16;;;;;;;0.00;0.00;;;;;;;;;;5115089;28;20193;-71
2022/04/26 15:35:43;;;;;;;0.10;0.10;;;;;;;;;;5100122;28;20269;-71
2022/04/26 15:38:12;;;;;;;0.03;0.03;;;;;;;;;;5115831;28;20266;-70
2022/04/26 15:40:39;;;;;;;0.10;0.10;;;;;;;;;;5098431;28;20245;-71
2022/04/26 15:43:06;;;;;;;0.10;0.10;;;;;;;;;;5116571;28;20244;-71
2022/04/26 15:45:33;;;;;;;0.00;0.00;;;;;;;;;;5097990;28;20246;-70
2022/04/26 15:48:01;;;;;;;0.10;0.10;;;;;;;;;;5117112;28;20193;-71
2022/04/26 15:50:28;;;;;;;0.10;0.10;;;;;;;;;;5097811;28;20592;-71
2022/04/26 15:52:55;;;;;;;0.10;0.10;;;;;;;;;;5117858;28;20398;-71
2022/04/26 15:55:23;;;;;;;0.10;0.10;;;;;;;;;;5096736;28;20231;-71
2022/04/26 15:57:51;;;;;;;0.00;0.00;;;;;;;;;;5118046;28;20210;-71
2022/04/26 16:00:20;;;;;;;0.10;0.10;;;;;;;;;;5096200;28;20196;-70
2022/04/26 16:02:47;;;;;;;0.00;0.00;;;;;;;;;;5118311;28;20280;-70
2022/04/26 16:05:14;;;;;;;0.10;0.10;;;;;;;;;;5095541;28;20420;-71
2022/04/26 16:07:41;;;;;;;0.10;0.10;;;;;;;;;;5119300;28;20479;-71
2022/04/26 16:21:06;;;;;;;0.00;0.00;;;;;;;;;;5102029;28;20293;-71
2022/04/26 16:23:33;;;;;;;0.10;0.10;;;;;;;;;;5111871;28;20259;-71
2022/04/26 16:26:02;;;;;;;0.10;0.10;;;;;;;;;;5100823;28;20240;-71
2022/04/26 16:28:30;;;;;;;0.10;0.10;;;;;;;;;;5112676;28;20376;-70
2022/04/26 16:30:56;;;;;;;0.10;0.10;;;;;;;;;;5100451;28;20240;-71
2022/04/26 16:33:23;;;;;;;0.03;0.03;;;;;;;;;;5113483;28;20210;-69
2022/04/26 16:35:49;;;;;;;0.00;0.00;;;;;;;;;;5099460;28;20240;-70
2022/04/26 16:38:17;;;;;;;0.10;0.10;;;;;;;;;;5113793;28;20204;-71
2022/04/26 16:40:44;;;;;;;0.10;0.10;;;;;;;;;;5098332;28;20490;-70
2022/04/26 16:43:11;;;;;;;0.10;0.10;;;;;;;;;;5114772;28;20237;-72
2022/04/26 16:45:39;;;;;;;0.10;0.10;;;;;;;;;;5097845;28;20261;-70
2022/04/26 16:48:07;;;;;;;0.00;0.00;;;;;;;;;;5115269;28;20193;-70
2022/04/26 16:50:33;;;;;;;0.10;0.10;;;;;;;;;;5096520;28;20244;-70
2022/04/26 16:53:00;;;;;;;0.10;0.10;;;;;;;;;;5115949;28;20483;-70
2022/04/26 16:55:27;;;;;;;0.00;0.00;;;;;;;;;;5096210;28;20250;-71
2022/04/26 16:57:54;;;;;;;0.10;0.10;;;;;;;;;;5116574;28;20205;-69
2022/04/26 17:00:21;;;;;;;0.00;0.00;;;;;;;;;;5095541;28;20278;-69
2022/04/26 17:02:50;;;;;;;0.03;0.03;;;;;;;;;;5116901;28;20288;-69
2022/04/26 17:05:19;;;;;;;0.10;0.10;;;;;;;;;;5094686;28;20244;-69
2022/04/26 17:07:46;;;;;;;0.10;0.10;;;;;;;;;;5117427;28;20202;-70
2022/04/26 17:10:14;;;;;;;0.10;0.10;;;;;;;;;;5094463;28;20203;-70
2022/04/26 17:12:41;;;;;;;0.10;0.10;;;;;;;;;;5118049;28;20211;-69
2022/04/26 17:15:09;;;;;;;0.10;0.10;;;;;;;;;;5093433;28;20205;-71
2022/04/26 17:17:38;;;;;;;0.10;0.10;;;;;;;;;;5118931;28;20193;-67
2022/04/26 17:20:08;;;;;;;0.10;0.10;;;;;;;;;;5103539;28;20262;-71
2022/04/26 17:22:34;;;;;;;0.10;0.10;;;;;;;;;;5108587;28;20241;-72
2022/04/26 17:25:17;;;;;;;0.10;0.10;;;;;;;;;;5103379;28;20426;-72
2022/04/26 17:27:44;;;;;;;0.10;0.10;;;;;;;;;;5102847;28;20179;-72
2022/04/26 17:30:12;;;;;;;0.10;0.10;;;;;;;;;;5093193;28;20204;-72
2022/04/26 17:32:39;;;;;;;0.00;0.00;;;;;;;;;;5118437;28;20188;-72
2022/04/26 17:35:09;;;;;;;0.00;0.00;;;;;;;;;;5103220;28;20243;-73
2022/04/26 17:37:37;;;;;;;0.03;0.03;;;;;;;;;;5091557;28;20480;-74
2022/04/26 17:40:05;;;;;;;0.00;0.00;;;;;;;;;;5102869;28;20238;-74
2022/04/26 17:42:34;;;;;;;0.07;0.07;;;;;;;;;;5091561;28;20233;-74
2022/04/26 17:45:01;;;;;;;0.00;0.00;;;;;;;;;;5103174;28;20202;-74
2022/04/26 17:47:29;;;;;;;0.10;0.10;;;;;;;;;;5108363;28;20244;-72
2022/04/26 17:49:55;;;;;;;0.10;0.10;;;;;;;;;;5103158;28;20228;-72
2022/04/26 17:52:25;;;;;;;0.10;0.10;;;;;;;;;;5108355;28;20241;-74
2022/04/26 17:57:38;;;;;;;0.10;0.10;;;;;;;;;;5091575;28;20246;-74
2022/04/26 18:00:08;;;;;;;0.10;0.10;;;;;;;;;;5102914;28;20206;-76
2022/04/26 18:02:35;;;;;;;0.10;0.10;;;;;;;;;;5111225;28;20296;-75
2022/04/26 18:05:02;;;;;;;0.10;0.10;;;;;;;;;;5106527;28;20322;-74
2022/04/26 18:07:30;;;;;;;0.03;0.03;;;;;;;;;;5112865;28;20239;-74
2022/04/26 18:09:57;;;;;;;0.10;0.10;;;;;;;;;;5107245;28;20364;-75
2022/04/26 18:12:24;;;;;;;0.10;0.10;;;;;;;;;;5112386;28;20258;-75
2022/04/26 18:14:54;;;;;;;0.10;0.10;;;;;;;;;;5106918;28;20203;-75
2022/04/26 18:17:22;;;;;;;0.10;0.10;;;;;;;;;;5112302;28;20587;-73
2022/04/26 18:19:52;;;;;;;0.10;0.10;;;;;;;;;;5106742;28;20264;-75
2022/04/26 18:22:19;;;;;;;0.10;0.10;;;;;;;;;;5111849;28;20266;-75
2022/04/26 18:24:48;;;;;;;0.10;0.10;;;;;;;;;;5106891;28;20202;-74
2022/04/26 18:27:14;;;;;;;0.10;0.10;;;;;;;;;;5111420;28;20240;-72
2022/04/26 18:29:42;;;;;;;0.03;0.03;;;;;;;;;;5106402;28;20552;-72
2022/04/26 18:32:09;;;;;;;0.00;0.00;;;;;;;;;;5111230;28;20242;-71
2022/04/26 18:34:36;;;;;;;0.10;0.10;;;;;;;;;;5105722;28;20255;-73
2022/04/26 18:37:03;;;;;;;0.10;0.10;;;;;;;;;;5110630;28;20245;-72
2022/04/26 18:39:32;;;;;;;0.10;0.10;;;;;;;;;;5105981;28;20270;-72
2022/04/26 18:41:59;;;;;;;0.10;0.10;;;;;;;;;;5109800;28;20316;-72
2022/04/26 18:44:26;;;;;;;0.10;0.10;;;;;;;;;;5106567;28;20384;-71
2022/04/26 18:46:55;;;;;;;0.10;0.10;;;;;;;;;;5109512;28;20280;-71
2022/04/26 18:49:28;;;;;;;0.00;0.00;;;;;;;;;;5106920;28;20234;-71
2022/04/26 18:51:57;;;;;;;0.10;0.10;;;;;;;;;;5109165;28;20489;-71
2022/04/26 18:54:25;;;;;;;0.10;0.10;;;;;;;;;;5106390;28;20441;-71
2022/04/26 18:56:54;;;;;;;0.10;0.10;;;;;;;;;;5108910;28;20246;-72
2022/04/26 18:59:23;;;;;;;0.10;0.10;;;;;;;;;;5107129;28;20214;-72
2022/04/26 19:01:50;;;;;;;0.10;0.10;;;;;;;;;;5108486;28;20233;-71
2022/04/26 19:04:16;;;;;;;0.10;0.10;;;;;;;;;;5107714;28;20232;-71
2022/04/26 19:06:45;;;;;;;0.10;0.10;;;;;;;;;;5107179;28;20239;-73
2022/04/26 19:09:12;;;;;;;0.10;0.10;;;;;;;;;;5108444;28;20203;-71
2022/04/26 19:14:25;;;;;;;0.10;0.10;;;;;;;;;;5106682;28;20229;-69
2022/04/26 19:16:52;;;;;;;0.10;0.10;;;;;;;;;;5108617;28;20244;-72
2022/04/26 19:19:19;;;;;;;0.10;0.10;;;;;;;;;;5106586;28;20201;-72
2022/04/26 19:21:47;;;;;;;0.10;0.10;;;;;;;;;;5107750;28;20347;-71
2022/04/26 19:24:14;;;;;;;0.10;0.10;;;;;;;;;;5107091;28;20213;-72
2022/04/26 19:26:42;;;;;;;0.10;0.10;;;;;;;;;;5105125;28;20276;-71
2022/04/26 19:29:10;;;;;;;0.10;0.10;;;;;;;;;;5108866;28;20203;-71
2022/04/26 19:31:38;;;;;;;0.07;0.07;;;;;;;;;;5106340;28;20238;-71
2022/04/26 19:34:06;;;;;;;0.10;0.10;;;;;;;;;;5107955;28;20305;-70
2022/04/26 19:36:34;;;;;;;0.10;0.10;;;;;;;;;;5105737;28;20237;-73
2022/04/26 19:39:02;;;;;;;0.10;0.10;;;;;;;;;;5108131;28;20223;-71
2022/04/26 19:41:29;;;;;;;0.10;0.10;;;;;;;;;;5105101;28;20243;-72
2022/04/26 19:43:57;;;;;;;0.10;0.10;;;;;;;;;;5108833;28;20334;-71
2022/04/26 19:46:24;;;;;;;0.10;0.10;;;;;;;;;;5104196;28;20479;-71
2022/04/26 19:48:53;;;;;;;0.10;0.10;;;;;;;;;;5110103;28;20400;-70
2022/04/26 19:51:26;;;;;;;0.00;0.00;;;;;;;;;;5103972;28;20282;-71
2022/04/26 19:53:53;;;;;;;0.10;0.10;;;;;;;;;;5109176;28;20212;-70
2022/04/26 19:56:21;;;;;;;0.10;0.10;;;;;;;;;;5103629;28;20456;-71
2022/04/26 19:58:48;;;;;;;0.10;0.10;;;;;;;;;;5109763;28;20213;-70
2022/04/26 20:01:17;;;;;;;0.00;0.00;;;;;;;;;;5102841;28;20251;-71
2022/04/26 20:03:45;;;;;;;0.10;0.10;;;;;;;;;;5109428;28;20557;-72